sensor_id;sensor_type;location;lat;lon;timestamp;P1;durP1;ratioP1;P2;durP2;ratioP2
58017;SDS011;43810;50.860;19.226;2022-10-31T00:00:57;74.85;;;34.67;;
58017;SDS011;43810;50.860;19.226;2022-10-31T00:03:36;57.85;;;30.08;;
58017;SDS011;43810;50.860;19.226;2022-10-31T00:06:02;63.80;;;33.58;;
58017;SDS011;43810;50.860;19.226;2022-10-31T00:08:28;64.85;;;34.55;;
58017;SDS011;43810;50.860;19.226;2022-10-31T00:10:54;71.10;;;35.33;;
58017;SDS011;43810;50.860;19.226;2022-10-31T00:13:19;69.22;;;33.03;;
58017;SDS011;43810;50.860;19.226;2022-10-31T00:15:45;64.35;;;32.92;;
58017;SDS011;43810;50.860;19.226;2022-10-31T00:18:11;66.45;;;35.05;;
58017;SDS011;43810;50.860;19.226;2022-10-31T00:20:37;69.05;;;33.92;;
58017;SDS011;43810;50.860;19.226;2022-10-31T00:23:04;62.00;;;33.10;;
58017;SDS011;43810;50.860;19.226;2022-10-31T00:25:33;66.47;;;32.88;;
58017;SDS011;43810;50.860;19.226;2022-10-31T00:28:01;66.22;;;32.05;;
58017;SDS011;43810;50.860;19.226;2022-10-31T00:30:28;68.85;;;33.42;;
58017;SDS011;43810;50.860;19.226;2022-10-31T00:32:53;62.10;;;32.78;;
58017;SDS011;43810;50.860;19.226;2022-10-31T00:35:19;60.28;;;31.77;;
58017;SDS011;43810;50.860;19.226;2022-10-31T00:37:45;69.75;;;34.00;;
58017;SDS011;43810;50.860;19.226;2022-10-31T00:40:11;70.07;;;34.75;;
58017;SDS011;43810;50.860;19.226;2022-10-31T00:42:38;60.95;;;33.78;;
58017;SDS011;43810;50.860;19.226;2022-10-31T00:45:05;62.83;;;31.67;;
58017;SDS011;43810;50.860;19.226;2022-10-31T00:47:31;64.57;;;33.15;;
58017;SDS011;43810;50.860;19.226;2022-10-31T00:49:57;66.05;;;32.30;;
58017;SDS011;43810;50.860;19.226;2022-10-31T00:52:22;69.20;;;32.17;;
58017;SDS011;43810;50.860;19.226;2022-10-31T00:54:48;62.33;;;29.60;;
58017;SDS011;43810;50.860;19.226;2022-10-31T00:57:13;56.80;;;28.75;;
58017;SDS011;43810;50.860;19.226;2022-10-31T00:59:39;58.45;;;27.75;;
58017;SDS011;43810;50.860;19.226;2022-10-31T01:02:05;61.75;;;30.13;;
58017;SDS011;43810;50.860;19.226;2022-10-31T01:04:31;63.70;;;29.20;;
58017;SDS011;43810;50.860;19.226;2022-10-31T01:06:56;65.95;;;31.65;;
58017;SDS011;43810;50.860;19.226;2022-10-31T01:09:22;66.22;;;32.30;;
58017;SDS011;43810;50.860;19.226;2022-10-31T01:11:48;59.88;;;30.58;;
58017;SDS011;43810;50.860;19.226;2022-10-31T01:14:14;63.50;;;30.90;;
58017;SDS011;43810;50.860;19.226;2022-10-31T01:16:39;58.22;;;29.70;;
58017;SDS011;43810;50.860;19.226;2022-10-31T01:19:05;59.38;;;29.77;;
58017;SDS011;43810;50.860;19.226;2022-10-31T01:21:31;59.17;;;28.85;;
58017;SDS011;43810;50.860;19.226;2022-10-31T01:23:57;59.40;;;28.35;;
58017;SDS011;43810;50.860;19.226;2022-10-31T01:26:27;64.20;;;30.80;;
58017;SDS011;43810;50.860;19.226;2022-10-31T01:29:00;64.00;;;32.05;;
58017;SDS011;43810;50.860;19.226;2022-10-31T01:31:29;61.10;;;29.65;;
58017;SDS011;43810;50.860;19.226;2022-10-31T01:33:57;60.47;;;29.20;;
58017;SDS011;43810;50.860;19.226;2022-10-31T01:36:24;64.93;;;28.98;;
58017;SDS011;43810;50.860;19.226;2022-10-31T01:38:55;57.95;;;29.92;;
58017;SDS011;43810;50.860;19.226;2022-10-31T01:41:25;64.65;;;29.33;;
58017;SDS011;43810;50.860;19.226;2022-10-31T01:43:57;65.90;;;30.10;;
58017;SDS011;43810;50.860;19.226;2022-10-31T01:46:32;69.40;;;33.40;;
58017;SDS011;43810;50.860;19.226;2022-10-31T01:49:02;67.63;;;33.85;;
58017;SDS011;43810;50.860;19.226;2022-10-31T01:51:33;73.13;;;36.72;;
58017;SDS011;43810;50.860;19.226;2022-10-31T01:54:06;69.55;;;34.33;;
58017;SDS011;43810;50.860;19.226;2022-10-31T01:56:36;66.07;;;32.80;;
58017;SDS011;43810;50.860;19.226;2022-10-31T01:59:07;70.55;;;36.78;;
58017;SDS011;43810;50.860;19.226;2022-10-31T02:01:35;69.55;;;32.70;;
58017;SDS011;43810;50.860;19.226;2022-10-31T02:04:02;63.35;;;32.58;;
58017;SDS011;43810;50.860;19.226;2022-10-31T02:06:33;69.90;;;34.38;;
58017;SDS011;43810;50.860;19.226;2022-10-31T02:09:03;64.63;;;30.58;;
58017;SDS011;43810;50.860;19.226;2022-10-31T02:11:30;66.90;;;33.42;;
58017;SDS011;43810;50.860;19.226;2022-10-31T02:13:58;68.03;;;33.38;;
58017;SDS011;43810;50.860;19.226;2022-10-31T02:16:26;66.32;;;32.65;;
58017;SDS011;43810;50.860;19.226;2022-10-31T02:18:52;68.40;;;34.08;;
58017;SDS011;43810;50.860;19.226;2022-10-31T02:21:20;61.13;;;32.55;;
58017;SDS011;43810;50.860;19.226;2022-10-31T02:29:22;72.32;;;32.33;;
58017;SDS011;43810;50.860;19.226;2022-10-31T02:32:15;67.60;;;33.35;;
58017;SDS011;43810;50.860;19.226;2022-10-31T02:34:58;65.43;;;33.40;;
58017;SDS011;43810;50.860;19.226;2022-10-31T02:37:31;67.43;;;33.33;;
58017;SDS011;43810;50.860;19.226;2022-10-31T02:40:29;64.53;;;32.13;;
58017;SDS011;43810;50.860;19.226;2022-10-31T02:43:05;62.92;;;30.95;;
58017;SDS011;43810;50.860;19.226;2022-10-31T02:45:43;62.65;;;32.78;;
58017;SDS011;43810;50.860;19.226;2022-10-31T02:48:19;67.68;;;30.90;;
58017;SDS011;43810;50.860;19.226;2022-10-31T02:50:52;67.15;;;32.47;;
58017;SDS011;43810;50.860;19.226;2022-10-31T02:53:22;70.45;;;33.03;;
58017;SDS011;43810;50.860;19.226;2022-10-31T02:58:54;69.47;;;32.95;;
58017;SDS011;43810;50.860;19.226;2022-10-31T03:04:34;72.90;;;34.88;;
58017;SDS011;43810;50.860;19.226;2022-10-31T03:07:25;60.22;;;32.85;;
58017;SDS011;43810;50.860;19.226;2022-10-31T03:09:59;79.63;;;35.47;;
58017;SDS011;43810;50.860;19.226;2022-10-31T03:12:53;81.45;;;36.75;;
58017;SDS011;43810;50.860;19.226;2022-10-31T03:15:23;74.85;;;34.85;;
58017;SDS011;43810;50.860;19.226;2022-10-31T03:20:28;62.90;;;34.80;;
58017;SDS011;43810;50.860;19.226;2022-10-31T03:23:00;68.32;;;34.38;;
58017;SDS011;43810;50.860;19.226;2022-10-31T03:25:29;66.55;;;32.53;;
58017;SDS011;43810;50.860;19.226;2022-10-31T03:27:57;68.93;;;32.22;;
58017;SDS011;43810;50.860;19.226;2022-10-31T03:30:26;68.13;;;32.25;;
58017;SDS011;43810;50.860;19.226;2022-10-31T03:32:53;78.28;;;32.20;;
58017;SDS011;43810;50.860;19.226;2022-10-31T03:35:22;69.53;;;30.75;;
58017;SDS011;43810;50.860;19.226;2022-10-31T03:37:49;66.75;;;29.83;;
58017;SDS011;43810;50.860;19.226;2022-10-31T03:40:19;62.40;;;29.63;;
58017;SDS011;43810;50.860;19.226;2022-10-31T03:43:01;66.25;;;29.55;;
58017;SDS011;43810;50.860;19.226;2022-10-31T03:45:32;59.08;;;29.88;;
58017;SDS011;43810;50.860;19.226;2022-10-31T03:48:05;66.25;;;30.50;;
58017;SDS011;43810;50.860;19.226;2022-10-31T03:50:35;65.75;;;29.77;;
58017;SDS011;43810;50.860;19.226;2022-10-31T03:53:19;65.78;;;30.63;;
58017;SDS011;43810;50.860;19.226;2022-10-31T03:55:52;66.15;;;30.73;;
58017;SDS011;43810;50.860;19.226;2022-10-31T03:58:42;73.47;;;31.60;;
58017;SDS011;43810;50.860;19.226;2022-10-31T04:01:13;76.05;;;34.08;;
58017;SDS011;43810;50.860;19.226;2022-10-31T04:03:42;78.75;;;35.15;;
58017;SDS011;43810;50.860;19.226;2022-10-31T04:06:10;74.32;;;33.67;;
58017;SDS011;43810;50.860;19.226;2022-10-31T04:08:42;80.43;;;37.83;;
58017;SDS011;43810;50.860;19.226;2022-10-31T04:11:13;84.32;;;38.40;;
58017;SDS011;43810;50.860;19.226;2022-10-31T04:13:43;78.53;;;36.92;;
58017;SDS011;43810;50.860;19.226;2022-10-31T04:16:11;76.93;;;37.40;;
58017;SDS011;43810;50.860;19.226;2022-10-31T04:18:40;74.88;;;34.45;;
58017;SDS011;43810;50.860;19.226;2022-10-31T04:21:06;82.10;;;35.25;;
58017;SDS011;43810;50.860;19.226;2022-10-31T04:23:33;67.50;;;34.17;;
58017;SDS011;43810;50.860;19.226;2022-10-31T04:26:00;74.88;;;35.85;;
58017;SDS011;43810;50.860;19.226;2022-10-31T04:28:26;68.63;;;35.17;;
58017;SDS011;43810;50.860;19.226;2022-10-31T04:30:52;74.18;;;36.03;;
58017;SDS011;43810;50.860;19.226;2022-10-31T04:33:19;68.00;;;35.90;;
58017;SDS011;43810;50.860;19.226;2022-10-31T04:35:45;63.50;;;33.45;;
58017;SDS011;43810;50.860;19.226;2022-10-31T04:38:11;75.25;;;34.78;;
58017;SDS011;43810;50.860;19.226;2022-10-31T04:40:37;74.38;;;34.92;;
58017;SDS011;43810;50.860;19.226;2022-10-31T04:43:03;68.93;;;34.45;;
58017;SDS011;43810;50.860;19.226;2022-10-31T04:45:29;75.30;;;34.20;;
58017;SDS011;43810;50.860;19.226;2022-10-31T04:47:54;74.65;;;34.47;;
58017;SDS011;43810;50.860;19.226;2022-10-31T04:50:20;67.80;;;33.35;;
58017;SDS011;43810;50.860;19.226;2022-10-31T04:52:46;76.68;;;34.30;;
58017;SDS011;43810;50.860;19.226;2022-10-31T04:55:12;80.60;;;35.40;;
58017;SDS011;43810;50.860;19.226;2022-10-31T05:00:09;76.45;;;35.10;;
58017;SDS011;43810;50.860;19.226;2022-10-31T05:02:43;79.32;;;34.40;;
58017;SDS011;43810;50.860;19.226;2022-10-31T05:07:43;86.53;;;39.70;;
58017;SDS011;43810;50.860;19.226;2022-10-31T05:10:10;100.93;;;43.15;;
58017;SDS011;43810;50.860;19.226;2022-10-31T05:12:45;103.97;;;42.55;;
58017;SDS011;43810;50.860;19.226;2022-10-31T05:15:14;84.38;;;39.10;;
58017;SDS011;43810;50.860;19.226;2022-10-31T05:17:41;94.80;;;41.50;;
58017;SDS011;43810;50.860;19.226;2022-10-31T05:20:07;93.45;;;38.55;;
58017;SDS011;43810;50.860;19.226;2022-10-31T05:22:33;82.18;;;37.08;;
58017;SDS011;43810;50.860;19.226;2022-10-31T05:24:59;89.75;;;39.10;;
58017;SDS011;43810;50.860;19.226;2022-10-31T05:27:25;70.10;;;34.22;;
58017;SDS011;43810;50.860;19.226;2022-10-31T05:29:50;72.28;;;32.80;;
58017;SDS011;43810;50.860;19.226;2022-10-31T05:32:16;80.65;;;34.50;;
58017;SDS011;43810;50.860;19.226;2022-10-31T05:34:42;75.85;;;34.15;;
58017;SDS011;43810;50.860;19.226;2022-10-31T05:37:07;80.97;;;37.97;;
58017;SDS011;43810;50.860;19.226;2022-10-31T05:39:33;84.78;;;36.20;;
58017;SDS011;43810;50.860;19.226;2022-10-31T05:42:01;77.30;;;37.40;;
58017;SDS011;43810;50.860;19.226;2022-10-31T05:44:28;83.80;;;39.78;;
58017;SDS011;43810;50.860;19.226;2022-10-31T05:46:54;86.85;;;39.60;;
58017;SDS011;43810;50.860;19.226;2022-10-31T05:49:20;89.70;;;40.80;;
58017;SDS011;43810;50.860;19.226;2022-10-31T05:51:45;82.38;;;40.45;;
58017;SDS011;43810;50.860;19.226;2022-10-31T05:54:11;95.25;;;40.97;;
58017;SDS011;43810;50.860;19.226;2022-10-31T05:56:37;86.13;;;39.60;;
58017;SDS011;43810;50.860;19.226;2022-10-31T05:59:03;73.65;;;36.63;;
58017;SDS011;43810;50.860;19.226;2022-10-31T06:01:28;80.35;;;37.45;;
58017;SDS011;43810;50.860;19.226;2022-10-31T06:03:54;71.72;;;33.75;;
58017;SDS011;43810;50.860;19.226;2022-10-31T06:06:20;80.75;;;34.72;;
58017;SDS011;43810;50.860;19.226;2022-10-31T06:08:46;77.53;;;35.33;;
58017;SDS011;43810;50.860;19.226;2022-10-31T06:11:11;72.90;;;33.40;;
58017;SDS011;43810;50.860;19.226;2022-10-31T06:13:37;64.82;;;32.95;;
58017;SDS011;43810;50.860;19.226;2022-10-31T06:16:03;73.07;;;31.60;;
58017;SDS011;43810;50.860;19.226;2022-10-31T06:18:29;75.93;;;32.53;;
58017;SDS011;43810;50.860;19.226;2022-10-31T06:20:54;77.10;;;31.80;;
58017;SDS011;43810;50.860;19.226;2022-10-31T06:23:20;63.15;;;29.33;;
58017;SDS011;43810;50.860;19.226;2022-10-31T06:25:49;67.80;;;30.02;;
58017;SDS011;43810;50.860;19.226;2022-10-31T06:28:16;67.80;;;28.98;;
58017;SDS011;43810;50.860;19.226;2022-10-31T06:30:41;63.88;;;29.90;;
58017;SDS011;43810;50.860;19.226;2022-10-31T06:33:08;60.38;;;28.35;;
58017;SDS011;43810;50.860;19.226;2022-10-31T06:35:33;68.55;;;28.80;;
58017;SDS011;43810;50.860;19.226;2022-10-31T06:37:59;60.83;;;27.92;;
58017;SDS011;43810;50.860;19.226;2022-10-31T06:40:25;68.93;;;28.17;;
58017;SDS011;43810;50.860;19.226;2022-10-31T06:42:57;65.85;;;29.00;;
58017;SDS011;43810;50.860;19.226;2022-10-31T06:45:24;58.60;;;28.13;;
58017;SDS011;43810;50.860;19.226;2022-10-31T06:47:51;72.45;;;28.20;;
58017;SDS011;43810;50.860;19.226;2022-10-31T06:50:18;60.92;;;29.15;;
58017;SDS011;43810;50.860;19.226;2022-10-31T06:52:49;66.30;;;29.33;;
58017;SDS011;43810;50.860;19.226;2022-10-31T06:55:16;56.13;;;28.20;;
58017;SDS011;43810;50.860;19.226;2022-10-31T06:57:42;56.35;;;26.58;;
58017;SDS011;43810;50.860;19.226;2022-10-31T07:00:08;61.85;;;29.05;;
58017;SDS011;43810;50.860;19.226;2022-10-31T07:02:34;58.47;;;28.05;;
58017;SDS011;43810;50.860;19.226;2022-10-31T07:04:59;58.40;;;27.92;;
58017;SDS011;43810;50.860;19.226;2022-10-31T07:07:25;59.55;;;27.67;;
58017;SDS011;43810;50.860;19.226;2022-10-31T07:09:51;54.40;;;24.92;;
58017;SDS011;43810;50.860;19.226;2022-10-31T07:12:17;55.50;;;25.73;;
58017;SDS011;43810;50.860;19.226;2022-10-31T07:14:42;55.15;;;24.23;;
58017;SDS011;43810;50.860;19.226;2022-10-31T07:17:08;50.60;;;24.27;;
58017;SDS011;43810;50.860;19.226;2022-10-31T07:19:34;48.83;;;23.50;;
58017;SDS011;43810;50.860;19.226;2022-10-31T07:21:59;50.60;;;22.10;;
58017;SDS011;43810;50.860;19.226;2022-10-31T07:24:25;45.70;;;21.60;;
58017;SDS011;43810;50.860;19.226;2022-10-31T07:26:51;44.63;;;20.75;;
58017;SDS011;43810;50.860;19.226;2022-10-31T07:29:17;40.38;;;20.90;;
58017;SDS011;43810;50.860;19.226;2022-10-31T07:31:42;41.88;;;20.27;;
58017;SDS011;43810;50.860;19.226;2022-10-31T07:34:11;39.38;;;20.80;;
58017;SDS011;43810;50.860;19.226;2022-10-31T07:36:37;49.20;;;21.65;;
58017;SDS011;43810;50.860;19.226;2022-10-31T07:39:02;32.90;;;19.33;;
58017;SDS011;43810;50.860;19.226;2022-10-31T07:41:28;41.92;;;19.88;;
58017;SDS011;43810;50.860;19.226;2022-10-31T07:43:54;39.17;;;18.65;;
58017;SDS011;43810;50.860;19.226;2022-10-31T07:46:21;40.15;;;19.95;;
58017;SDS011;43810;50.860;19.226;2022-10-31T07:48:47;40.10;;;19.50;;
58017;SDS011;43810;50.860;19.226;2022-10-31T07:51:12;35.40;;;18.38;;
58017;SDS011;43810;50.860;19.226;2022-10-31T07:53:38;35.90;;;17.73;;
58017;SDS011;43810;50.860;19.226;2022-10-31T07:56:04;34.80;;;17.50;;
58017;SDS011;43810;50.860;19.226;2022-10-31T07:58:30;33.42;;;17.88;;
58017;SDS011;43810;50.860;19.226;2022-10-31T08:00:57;39.40;;;18.83;;
58017;SDS011;43810;50.860;19.226;2022-10-31T08:03:22;31.70;;;16.85;;
58017;SDS011;43810;50.860;19.226;2022-10-31T08:05:48;35.95;;;17.15;;
58017;SDS011;43810;50.860;19.226;2022-10-31T08:08:14;41.30;;;18.13;;
58017;SDS011;43810;50.860;19.226;2022-10-31T08:10:40;34.53;;;17.35;;
58017;SDS011;43810;50.860;19.226;2022-10-31T08:13:07;36.38;;;17.02;;
58017;SDS011;43810;50.860;19.226;2022-10-31T08:15:34;33.88;;;16.50;;
58017;SDS011;43810;50.860;19.226;2022-10-31T08:18:03;34.78;;;17.38;;
58017;SDS011;43810;50.860;19.226;2022-10-31T08:20:29;34.60;;;17.08;;
58017;SDS011;43810;50.860;19.226;2022-10-31T08:22:56;38.28;;;17.35;;
58017;SDS011;43810;50.860;19.226;2022-10-31T08:25:24;39.30;;;18.15;;
58017;SDS011;43810;50.860;19.226;2022-10-31T08:27:51;33.13;;;16.35;;
58017;SDS011;43810;50.860;19.226;2022-10-31T08:30:18;36.22;;;17.80;;
58017;SDS011;43810;50.860;19.226;2022-10-31T08:32:44;33.40;;;17.75;;
58017;SDS011;43810;50.860;19.226;2022-10-31T08:35:11;38.25;;;16.77;;
58017;SDS011;43810;50.860;19.226;2022-10-31T08:37:37;30.80;;;16.73;;
58017;SDS011;43810;50.860;19.226;2022-10-31T08:40:03;34.80;;;16.40;;
58017;SDS011;43810;50.860;19.226;2022-10-31T08:42:29;28.92;;;16.85;;
58017;SDS011;43810;50.860;19.226;2022-10-31T08:44:55;36.60;;;17.55;;
58017;SDS011;43810;50.860;19.226;2022-10-31T08:47:20;33.72;;;17.58;;
58017;SDS011;43810;50.860;19.226;2022-10-31T08:49:47;31.73;;;16.13;;
58017;SDS011;43810;50.860;19.226;2022-10-31T08:52:12;35.67;;;17.40;;
58017;SDS011;43810;50.860;19.226;2022-10-31T08:54:40;32.90;;;16.27;;
58017;SDS011;43810;50.860;19.226;2022-10-31T08:57:05;32.40;;;17.10;;
58017;SDS011;43810;50.860;19.226;2022-10-31T08:59:31;27.35;;;16.33;;
58017;SDS011;43810;50.860;19.226;2022-10-31T09:01:57;33.88;;;17.15;;
58017;SDS011;43810;50.860;19.226;2022-10-31T09:04:22;33.33;;;16.92;;
58017;SDS011;43810;50.860;19.226;2022-10-31T09:06:48;32.67;;;16.55;;
58017;SDS011;43810;50.860;19.226;2022-10-31T09:09:14;33.45;;;16.63;;
58017;SDS011;43810;50.860;19.226;2022-10-31T09:11:39;26.65;;;16.10;;
58017;SDS011;43810;50.860;19.226;2022-10-31T09:14:05;31.60;;;16.48;;
58017;SDS011;43810;50.860;19.226;2022-10-31T09:16:31;33.90;;;15.77;;
58017;SDS011;43810;50.860;19.226;2022-10-31T09:18:57;29.73;;;15.60;;
58017;SDS011;43810;50.860;19.226;2022-10-31T09:21:22;28.00;;;14.55;;
58017;SDS011;43810;50.860;19.226;2022-10-31T09:23:48;27.98;;;14.50;;
58017;SDS011;43810;50.860;19.226;2022-10-31T09:26:14;27.85;;;13.52;;
58017;SDS011;43810;50.860;19.226;2022-10-31T09:28:40;27.35;;;13.75;;
58017;SDS011;43810;50.860;19.226;2022-10-31T09:31:05;32.70;;;14.45;;
58017;SDS011;43810;50.860;19.226;2022-10-31T09:33:31;25.52;;;13.65;;
58017;SDS011;43810;50.860;19.226;2022-10-31T09:35:58;24.98;;;13.68;;
58017;SDS011;43810;50.860;19.226;2022-10-31T09:38:24;24.17;;;12.80;;
58017;SDS011;43810;50.860;19.226;2022-10-31T09:52:13;24.90;;;11.10;;
58017;SDS011;43810;50.860;19.226;2022-10-31T09:54:54;24.65;;;9.77;;
58017;SDS011;43810;50.860;19.226;2022-10-31T09:57:29;21.52;;;10.70;;
58017;SDS011;43810;50.860;19.226;2022-10-31T09:59:59;19.73;;;9.85;;
58017;SDS011;43810;50.860;19.226;2022-10-31T10:02:37;19.13;;;9.63;;
58017;SDS011;43810;50.860;19.226;2022-10-31T10:05:11;20.52;;;9.65;;
58017;SDS011;43810;50.860;19.226;2022-10-31T10:07:45;20.67;;;10.20;;
58017;SDS011;43810;50.860;19.226;2022-10-31T10:26:38;19.92;;;8.15;;
58017;SDS011;43810;50.860;19.226;2022-10-31T10:29:15;14.40;;;7.25;;
58017;SDS011;43810;50.860;19.226;2022-10-31T10:31:48;16.90;;;6.93;;
58017;SDS011;43810;50.860;19.226;2022-10-31T10:34:21;17.33;;;6.80;;
58017;SDS011;43810;50.860;19.226;2022-10-31T10:37:22;22.30;;;7.40;;
58017;SDS011;43810;50.860;19.226;2022-10-31T10:40:13;15.45;;;7.10;;
58017;SDS011;43810;50.860;19.226;2022-10-31T10:42:41;17.70;;;7.80;;
58017;SDS011;43810;50.860;19.226;2022-10-31T10:45:34;21.25;;;8.77;;
58017;SDS011;43810;50.860;19.226;2022-10-31T10:49:02;15.88;;;7.47;;
58017;SDS011;43810;50.860;19.226;2022-10-31T10:51:21;19.23;;;7.00;;
58017;SDS011;43810;50.860;19.226;2022-10-31T10:54:54;13.85;;;6.82;;
58017;SDS011;43810;50.860;19.226;2022-10-31T10:59:22;18.85;;;7.60;;
58017;SDS011;43810;50.860;19.226;2022-10-31T11:01:48;17.95;;;8.07;;
58017;SDS011;43810;50.860;19.226;2022-10-31T11:04:35;13.35;;;6.70;;
58017;SDS011;43810;50.860;19.226;2022-10-31T11:07:11;19.77;;;7.10;;
58017;SDS011;43810;50.860;19.226;2022-10-31T11:09:37;14.13;;;6.30;;
58017;SDS011;43810;50.860;19.226;2022-10-31T11:12:08;22.48;;;6.30;;
58017;SDS011;43810;50.860;19.226;2022-10-31T11:14:42;11.38;;;5.60;;
58017;SDS011;43810;50.860;19.226;2022-10-31T11:17:22;13.32;;;6.35;;
58017;SDS011;43810;50.860;19.226;2022-10-31T11:20:06;16.13;;;6.03;;
58017;SDS011;43810;50.860;19.226;2022-10-31T11:23:00;16.98;;;5.43;;
58017;SDS011;43810;50.860;19.226;2022-10-31T11:26:06;17.75;;;5.90;;
58017;SDS011;43810;50.860;19.226;2022-10-31T11:28:30;11.13;;;5.32;;
58017;SDS011;43810;50.860;19.226;2022-10-31T11:31:00;14.73;;;6.00;;
58017;SDS011;43810;50.860;19.226;2022-10-31T11:33:36;14.73;;;6.22;;
58017;SDS011;43810;50.860;19.226;2022-10-31T11:38:51;13.02;;;5.40;;
58017;SDS011;43810;50.860;19.226;2022-10-31T11:41:18;15.07;;;5.55;;
58017;SDS011;43810;50.860;19.226;2022-10-31T11:43:54;18.50;;;5.60;;
58017;SDS011;43810;50.860;19.226;2022-10-31T11:46:24;12.27;;;5.95;;
58017;SDS011;43810;50.860;19.226;2022-10-31T11:48:56;15.70;;;6.20;;
58017;SDS011;43810;50.860;19.226;2022-10-31T11:51:23;13.70;;;5.82;;
58017;SDS011;43810;50.860;19.226;2022-10-31T11:53:52;9.95;;;4.85;;
58017;SDS011;43810;50.860;19.226;2022-10-31T11:56:20;13.50;;;5.43;;
58017;SDS011;43810;50.860;19.226;2022-10-31T12:01:47;13.57;;;5.50;;
58017;SDS011;43810;50.860;19.226;2022-10-31T12:04:14;13.00;;;5.13;;
58017;SDS011;43810;50.860;19.226;2022-10-31T12:06:45;9.75;;;4.28;;
58017;SDS011;43810;50.860;19.226;2022-10-31T12:14:54;10.05;;;4.32;;
58017;SDS011;43810;50.860;19.226;2022-10-31T12:17:26;12.63;;;4.03;;
58017;SDS011;43810;50.860;19.226;2022-10-31T12:26:10;12.13;;;4.77;;
58017;SDS011;43810;50.860;19.226;2022-10-31T12:28:55;14.82;;;4.82;;
58017;SDS011;43810;50.860;19.226;2022-10-31T12:46:04;15.05;;;5.07;;
58017;SDS011;43810;50.860;19.226;2022-10-31T13:01:30;10.70;;;5.10;;
58017;SDS011;43810;50.860;19.226;2022-10-31T13:04:05;13.10;;;5.35;;
58017;SDS011;43810;50.860;19.226;2022-10-31T13:06:47;11.38;;;4.63;;
58017;SDS011;43810;50.860;19.226;2022-10-31T13:09:27;9.82;;;4.60;;
58017;SDS011;43810;50.860;19.226;2022-10-31T13:14:34;14.43;;;4.43;;
58017;SDS011;43810;50.860;19.226;2022-10-31T13:17:04;9.77;;;4.72;;
58017;SDS011;43810;50.860;19.226;2022-10-31T13:19:39;12.98;;;5.03;;
58017;SDS011;43810;50.860;19.226;2022-10-31T13:22:09;13.10;;;5.50;;
58017;SDS011;43810;50.860;19.226;2022-10-31T13:24:42;14.30;;;5.35;;
58017;SDS011;43810;50.860;19.226;2022-10-31T13:27:20;11.23;;;4.55;;
58017;SDS011;43810;50.860;19.226;2022-10-31T13:33:24;13.43;;;5.95;;
58017;SDS011;43810;50.860;19.226;2022-10-31T13:36:02;11.32;;;5.40;;
58017;SDS011;43810;50.860;19.226;2022-10-31T13:41:31;13.90;;;5.50;;
58017;SDS011;43810;50.860;19.226;2022-10-31T13:46:41;14.80;;;4.82;;
58017;SDS011;43810;50.860;19.226;2022-10-31T13:54:38;25.25;;;9.57;;
58017;SDS011;43810;50.860;19.226;2022-10-31T13:57:19;15.35;;;7.05;;
58017;SDS011;43810;50.860;19.226;2022-10-31T14:00:05;20.17;;;8.30;;
58017;SDS011;43810;50.860;19.226;2022-10-31T14:02:48;12.82;;;5.95;;
58017;SDS011;43810;50.860;19.226;2022-10-31T14:07:51;15.82;;;6.53;;
58017;SDS011;43810;50.860;19.226;2022-10-31T14:12:50;16.05;;;5.95;;
58017;SDS011;43810;50.860;19.226;2022-10-31T14:15:26;17.23;;;6.15;;
58017;SDS011;43810;50.860;19.226;2022-10-31T14:18:01;19.40;;;6.60;;
58017;SDS011;43810;50.860;19.226;2022-10-31T14:28:47;16.30;;;5.80;;
58017;SDS011;43810;50.860;19.226;2022-10-31T14:31:28;18.20;;;6.28;;
58017;SDS011;43810;50.860;19.226;2022-10-31T14:34:02;10.95;;;5.05;;
58017;SDS011;43810;50.860;19.226;2022-10-31T14:42:51;11.13;;;6.03;;
58017;SDS011;43810;50.860;19.226;2022-10-31T14:51:01;16.45;;;7.00;;
58017;SDS011;43810;50.860;19.226;2022-10-31T14:53:36;17.20;;;7.30;;
58017;SDS011;43810;50.860;19.226;2022-10-31T14:56:09;21.73;;;8.70;;
58017;SDS011;43810;50.860;19.226;2022-10-31T14:58:45;20.42;;;8.32;;
58017;SDS011;43810;50.860;19.226;2022-10-31T15:01:23;16.80;;;8.80;;
58017;SDS011;43810;50.860;19.226;2022-10-31T15:03:53;42.53;;;17.90;;
58017;SDS011;43810;50.860;19.226;2022-10-31T15:06:23;88.50;;;34.08;;
58017;SDS011;43810;50.860;19.226;2022-10-31T15:08:51;100.55;;;41.92;;
58017;SDS011;43810;50.860;19.226;2022-10-31T15:11:19;110.32;;;46.20;;
58017;SDS011;43810;50.860;19.226;2022-10-31T15:13:48;89.07;;;39.30;;
58017;SDS011;43810;50.860;19.226;2022-10-31T15:16:30;83.30;;;36.65;;
58017;SDS011;43810;50.860;19.226;2022-10-31T15:18:59;71.97;;;30.48;;
58017;SDS011;43810;50.860;19.226;2022-10-31T15:21:28;67.20;;;28.20;;
58017;SDS011;43810;50.860;19.226;2022-10-31T15:23:56;54.58;;;23.05;;
58017;SDS011;43810;50.860;19.226;2022-10-31T15:26:26;33.50;;;14.52;;
58017;SDS011;43810;50.860;19.226;2022-10-31T15:29:11;27.30;;;12.05;;
58017;SDS011;43810;50.860;19.226;2022-10-31T15:31:48;28.00;;;12.35;;
58017;SDS011;43810;50.860;19.226;2022-10-31T15:34:22;31.30;;;14.40;;
58017;SDS011;43810;50.860;19.226;2022-10-31T15:36:54;25.20;;;13.90;;
58017;SDS011;43810;50.860;19.226;2022-10-31T15:39:20;30.95;;;14.98;;
58017;SDS011;43810;50.860;19.226;2022-10-31T15:41:50;35.25;;;16.25;;
58017;SDS011;43810;50.860;19.226;2022-10-31T15:49:26;31.60;;;15.52;;
58017;SDS011;43810;50.860;19.226;2022-10-31T15:52:18;36.10;;;14.27;;
58017;SDS011;43810;50.860;19.226;2022-10-31T15:54:56;29.80;;;15.27;;
58017;SDS011;43810;50.860;19.226;2022-10-31T15:57:30;31.40;;;15.65;;
58017;SDS011;43810;50.860;19.226;2022-10-31T15:59:56;46.53;;;18.85;;
58017;SDS011;43810;50.860;19.226;2022-10-31T16:02:24;34.03;;;18.02;;
58017;SDS011;43810;50.860;19.226;2022-10-31T16:07:25;29.33;;;15.63;;
58017;SDS011;43810;50.860;19.226;2022-10-31T16:12:21;39.40;;;21.17;;
58017;SDS011;43810;50.860;19.226;2022-10-31T16:14:49;37.15;;;21.98;;
58017;SDS011;43810;50.860;19.226;2022-10-31T16:17:18;44.63;;;24.50;;
58017;SDS011;43810;50.860;19.226;2022-10-31T16:19:57;34.25;;;20.15;;
58017;SDS011;43810;50.860;19.226;2022-10-31T16:22:26;33.78;;;20.23;;
58017;SDS011;43810;50.860;19.226;2022-10-31T16:24:58;39.42;;;20.58;;
58017;SDS011;43810;50.860;19.226;2022-10-31T16:27:50;31.40;;;18.25;;
58017;SDS011;43810;50.860;19.226;2022-10-31T16:33:05;34.97;;;18.15;;
58017;SDS011;43810;50.860;19.226;2022-10-31T16:35:46;48.83;;;17.83;;
58017;SDS011;43810;50.860;19.226;2022-10-31T16:38:12;33.08;;;14.63;;
58017;SDS011;43810;50.860;19.226;2022-10-31T16:40:39;34.47;;;15.10;;
58017;SDS011;43810;50.860;19.226;2022-10-31T16:43:08;31.88;;;14.75;;
58017;SDS011;43810;50.860;19.226;2022-10-31T16:45:37;36.63;;;15.43;;
58017;SDS011;43810;50.860;19.226;2022-10-31T16:48:12;29.20;;;14.82;;
58017;SDS011;43810;50.860;19.226;2022-10-31T16:50:41;25.60;;;14.50;;
58017;SDS011;43810;50.860;19.226;2022-10-31T16:53:08;27.50;;;14.10;;
58017;SDS011;43810;50.860;19.226;2022-10-31T16:55:34;31.35;;;14.18;;
58017;SDS011;43810;50.860;19.226;2022-10-31T16:58:08;38.53;;;16.83;;